createdAt,value
2022-10-07T00:00:59.933Z,89.07
2022-10-07T00:03:28.492Z,89.34
2022-10-07T00:06:13.573Z,89.39
2022-10-07T00:08:43.280Z,89.70
2022-10-07T00:11:14.507Z,89.54
2022-10-07T00:13:44.310Z,89.95
2022-10-07T00:16:19.255Z,89.65
2022-10-07T00:18:46.474Z,90.12
2022-10-07T00:21:16.835Z,90.23
2022-10-07T00:23:45.819Z,90.16
2022-10-07T00:26:19.799Z,90.04
2022-10-07T00:28:47.092Z,90.22
2022-10-07T00:31:24.448Z,90.15
2022-10-07T00:33:52.341Z,90.31
2022-10-07T00:36:23.832Z,90.22
2022-10-07T00:38:53.606Z,90.58
2022-10-07T00:41:37.282Z,90.70
2022-10-07T00:44:37.629Z,91.49
2022-10-07T00:47:24.188Z,91.54
2022-10-07T00:49:58.234Z,91.55
2022-10-07T00:52:30.354Z,91.75
2022-10-07T00:55:00.268Z,91.88
2022-10-07T00:57:29.512Z,91.87
2022-10-07T00:59:57.416Z,91.43
2022-10-07T01:02:26.736Z,92.10
2022-10-07T01:04:56.833Z,92.26
2022-10-07T01:07:23.840Z,92.22
2022-10-07T01:09:53.299Z,92.21
2022-10-07T01:12:55.289Z,92.35
2022-10-07T01:15:49.848Z,92.27
2022-10-07T01:18:29.492Z,92.63
2022-10-07T01:21:18.029Z,92.13
2022-10-07T01:24:13.151Z,91.97
2022-10-07T01:26:57.343Z,92.76
2022-10-07T01:29:40.677Z,91.58
2022-10-07T01:32:19.465Z,91.90
2022-10-07T01:34:48.816Z,92.60
2022-10-07T01:37:17.883Z,92.08
2022-10-07T01:39:51.172Z,92.71
2022-10-07T01:42:21.277Z,92.79
2022-10-07T01:44:52.959Z,93.18
2022-10-07T01:47:19.994Z,93.13
2022-10-07T01:49:46.887Z,93.31
2022-10-07T01:52:47.686Z,93.20
2022-10-07T01:56:12.696Z,93.21
2022-10-07T01:58:49.199Z,93.18
2022-10-07T02:01:42.568Z,93.31
2022-10-07T02:04:43.541Z,93.42
2022-10-07T02:07:56.476Z,93.00
2022-10-07T02:11:10.262Z,93.43
2022-10-07T02:14:00.123Z,93.36
2022-10-07T02:16:49.924Z,93.54
2022-10-07T02:19:24.898Z,93.64
2022-10-07T02:21:55.074Z,93.43
2022-10-07T02:24:27.510Z,93.68
2022-10-07T02:26:56.855Z,93.68
2022-10-07T02:29:27.174Z,93.98
2022-10-07T02:31:57.536Z,94.00
2022-10-07T02:34:26.583Z,93.63
2022-10-07T02:36:58.868Z,93.63
2022-10-07T02:39:25.813Z,93.28
2022-10-07T02:42:02.943Z,93.72
2022-10-07T02:45:02.205Z,93.50
2022-10-07T02:47:42.885Z,93.43
2022-10-07T02:50:14.907Z,93.58
2022-10-07T02:52:45.005Z,93.24
2022-10-07T02:55:18.077Z,93.64
2022-10-07T02:57:49.287Z,93.47
2022-10-07T03:00:18.724Z,93.60
2022-10-07T03:03:03.795Z,93.41
2022-10-07T03:05:32.787Z,93.62
2022-10-07T03:08:09.133Z,93.03
2022-10-07T03:10:37.388Z,93.61
2022-10-07T03:13:05.049Z,93.14
2022-10-07T03:15:39.716Z,93.34
2022-10-07T03:18:26.456Z,93.37
2022-10-07T03:20:56.243Z,93.24
2022-10-07T03:23:24.998Z,92.95
2022-10-07T03:25:54.381Z,93.07
2022-10-07T03:28:23.435Z,93.60
2022-10-07T03:30:51.540Z,93.51
2022-10-07T03:33:21.423Z,93.62
2022-10-07T03:35:48.334Z,93.28
2022-10-07T03:38:15.246Z,92.95
2022-10-07T03:40:44.479Z,93.09
2022-10-07T03:43:11.540Z,93.23
2022-10-07T03:45:44.721Z,92.67
2022-10-07T03:48:11.795Z,93.32
2022-10-07T03:50:38.711Z,93.22
2022-10-07T03:53:05.687Z,92.81
2022-10-07T03:55:32.672Z,92.55
2022-10-07T03:57:59.970Z,92.93
2022-10-07T04:00:27.898Z,92.99
2022-10-07T04:02:55.022Z,92.89
2022-10-07T04:05:22.845Z,92.81
2022-10-07T04:07:50.809Z,92.66
2022-10-07T04:10:19.613Z,93.02
2022-10-07T04:12:51.369Z,92.86
2022-10-07T04:15:19.102Z,92.75
2022-10-07T04:17:48.286Z,92.94
2022-10-07T04:20:16.755Z,93.04
2022-10-07T04:22:44.002Z,92.97
2022-10-07T04:25:31.561Z,93.07
2022-10-07T04:28:08.099Z,93.17
2022-10-07T04:30:40.511Z,92.33
2022-10-07T04:33:08.438Z,92.17
2022-10-07T04:35:41.305Z,92.17
2022-10-07T04:38:10.724Z,92.27
2022-10-07T04:40:46.525Z,92.34
2022-10-07T04:43:19.469Z,92.07
2022-10-07T04:45:48.472Z,91.64
2022-10-07T04:48:18.910Z,92.16
2022-10-07T04:50:47.057Z,92.41
2022-10-07T04:53:16.583Z,91.42
2022-10-07T04:55:50.231Z,92.45
2022-10-07T04:58:19.147Z,91.92
2022-10-07T05:00:49.780Z,91.13
2022-10-07T05:03:19.105Z,91.22
2022-10-07T05:05:52.550Z,90.45
2022-10-07T05:08:22.491Z,90.65
2022-10-07T05:10:59.232Z,90.18
2022-10-07T05:13:27.295Z,89.82
2022-10-07T05:15:57.958Z,87.57
2022-10-07T05:18:27.396Z,79.31
2022-10-07T05:20:55.170Z,72.53
2022-10-07T05:23:28.550Z,66.65
2022-10-07T05:26:10.516Z,62.60
2022-10-07T05:28:40.198Z,58.28
2022-10-07T05:31:13.778Z,56.32
2022-10-07T05:33:41.728Z,53.83
2022-10-07T05:36:10.329Z,54.79
2022-10-07T05:38:37.712Z,59.28
2022-10-07T05:41:10.200Z,63.24
2022-10-07T05:43:42.173Z,65.28
2022-10-07T05:46:13.048Z,68.09
2022-10-07T05:48:40.441Z,69.87
2022-10-07T05:51:08.973Z,71.42
2022-10-07T05:53:36.174Z,71.32
2022-10-07T05:56:08.233Z,73.33
2022-10-07T05:58:36.257Z,73.02
2022-10-07T06:01:11.383Z,73.79
2022-10-07T06:03:41.475Z,73.50
2022-10-07T06:06:09.094Z,74.26
2022-10-07T06:08:36.916Z,74.64
2022-10-07T06:11:24.171Z,74.62
2022-10-07T06:13:53.600Z,75.34
2022-10-07T06:16:21.392Z,75.75
2022-10-07T06:18:50.511Z,76.33
2022-10-07T06:21:17.493Z,76.10
2022-10-07T06:23:44.602Z,76.16
2022-10-07T06:26:13.613Z,73.60
2022-10-07T06:28:42.249Z,64.70
2022-10-07T06:31:15.467Z,55.46
2022-10-07T06:33:42.786Z,49.46
2022-10-07T06:36:14.355Z,45.20
2022-10-07T06:38:50.583Z,42.69
2022-10-07T06:41:18.740Z,40.87
2022-10-07T06:43:45.778Z,39.06
2022-10-07T06:46:18.977Z,37.86
2022-10-07T06:48:46.797Z,37.37
2022-10-07T06:51:17.202Z,37.01
2022-10-07T06:53:45.003Z,34.24
2022-10-07T06:56:14.642Z,33.09
2022-10-07T06:58:43.409Z,33.60
2022-10-07T07:01:12.056Z,32.94
2022-10-07T07:03:40.429Z,32.03
2022-10-07T07:06:09.186Z,31.36
2022-10-07T07:08:36.744Z,30.86
2022-10-07T07:11:26.453Z,29.72
2022-10-07T07:13:54.317Z,28.56
2022-10-07T07:16:22.019Z,28.33
2022-10-07T07:18:57.482Z,28.33
2022-10-07T07:21:26.137Z,29.35
2022-10-07T07:23:53.073Z,28.71
2022-10-07T07:26:20.628Z,27.99
2022-10-07T07:29:06.099Z,27.10
2022-10-07T07:31:36.432Z,27.44
2022-10-07T07:34:11.467Z,27.58
2022-10-07T07:36:45.314Z,27.51
2022-10-07T07:39:16.477Z,27.62
2022-10-07T07:41:46.863Z,27.23
2022-10-07T07:44:16.389Z,27.64
2022-10-07T07:46:49.147Z,27.90
2022-10-07T07:49:16.925Z,28.27
2022-10-07T07:51:44.139Z,28.03
2022-10-07T07:54:12.761Z,28.98
2022-10-07T07:56:39.850Z,28.79
2022-10-07T07:59:08.299Z,28.82
2022-10-07T08:01:35.952Z,30.14
2022-10-07T08:04:04.265Z,29.59
2022-10-07T08:06:31.826Z,29.58
2022-10-07T08:08:59.571Z,28.61
2022-10-07T08:11:27.933Z,29.33
2022-10-07T08:13:56.261Z,29.11
2022-10-07T08:16:26.452Z,29.05
2022-10-07T08:18:55.515Z,28.92
2022-10-07T08:21:26.966Z,28.46
2022-10-07T08:23:58.948Z,28.49
2022-10-07T08:26:31.093Z,28.54
2022-10-07T08:28:58.454Z,28.71
2022-10-07T08:31:29.317Z,28.40
2022-10-07T08:33:59.741Z,27.77
2022-10-07T08:36:29.425Z,27.69
2022-10-07T08:38:56.701Z,27.13
2022-10-07T08:41:34.341Z,26.94
2022-10-07T08:44:16.652Z,27.69
2022-10-07T08:47:24.283Z,26.69
2022-10-07T08:50:20.402Z,27.25
2022-10-07T08:52:55.672Z,27.56
2022-10-07T08:55:31.458Z,28.55
2022-10-07T08:58:23.071Z,27.87
2022-10-07T09:01:22.610Z,28.16
2022-10-07T09:04:10.803Z,28.68
2022-10-07T09:07:09.993Z,29.18
2022-10-07T09:09:45.320Z,28.90
2022-10-07T09:12:30.528Z,29.15
2022-10-07T09:15:02.032Z,27.84
2022-10-07T09:18:00.154Z,28.48
2022-10-07T09:20:33.292Z,27.80
2022-10-07T09:23:03.183Z,27.69
2022-10-07T09:25:31.922Z,28.03
2022-10-07T09:27:58.948Z,28.24
2022-10-07T09:30:28.746Z,28.17
2022-10-07T09:32:57.107Z,28.59
2022-10-07T09:35:29.742Z,29.75
2022-10-07T09:38:04.136Z,28.71
2022-10-07T09:41:01.284Z,28.81
2022-10-07T09:43:31.445Z,28.68
2022-10-07T09:46:00.807Z,28.88
2022-10-07T09:48:34.982Z,28.48
2022-10-07T09:51:21.738Z,29.20
2022-10-07T09:54:16.894Z,29.29
2022-10-07T09:56:46.743Z,28.85
2022-10-07T09:59:25.533Z,29.66
2022-10-07T10:01:56.762Z,29.19
2022-10-07T10:04:57.264Z,29.73
2022-10-07T10:07:36.640Z,29.68
2022-10-07T10:10:21.429Z,29.99
2022-10-07T10:12:55.949Z,28.64
2022-10-07T10:15:42.973Z,30.43
2022-10-07T10:18:41.392Z,30.72
2022-10-07T10:21:22.167Z,30.42
2022-10-07T10:23:56.881Z,30.88
2022-10-07T10:27:10.012Z,31.43
2022-10-07T10:29:51.932Z,30.26
2022-10-07T10:33:04.971Z,30.71
2022-10-07T10:35:40.427Z,30.36
2022-10-07T10:38:37.166Z,30.13
2022-10-07T10:41:20.093Z,30.61
2022-10-07T10:44:08.026Z,30.96
2022-10-07T10:47:23.061Z,30.87
2022-10-07T10:50:23.747Z,31.40
2022-10-07T10:53:34.737Z,31.25
2022-10-07T10:56:17.455Z,31.27
2022-10-07T10:59:31.971Z,30.85
2022-10-07T11:02:43.498Z,31.75
2022-10-07T11:05:36.795Z,32.44
2022-10-07T11:08:17.070Z,32.72
2022-10-07T11:10:48.899Z,31.88
2022-10-07T11:13:41.077Z,32.04
2022-10-07T11:16:17.614Z,31.75
2022-10-07T11:19:09.894Z,30.87
2022-10-07T11:21:49.825Z,31.87
2022-10-07T11:24:31.362Z,31.34
2022-10-07T11:27:29.561Z,30.73
2022-10-07T11:30:23.108Z,31.32
2022-10-07T11:33:08.164Z,31.26
2022-10-07T11:35:55.463Z,31.09
2022-10-07T11:38:37.470Z,31.62
2022-10-07T11:41:30.670Z,32.56
2022-10-07T11:44:05.847Z,32.79
2022-10-07T11:46:41.163Z,33.20
2022-10-07T11:49:20.113Z,33.77
2022-10-07T11:52:18.328Z,33.85
2022-10-07T11:55:08.722Z,33.93
2022-10-07T11:57:43.346Z,33.92
2022-10-07T12:00:36.786Z,34.42
2022-10-07T12:03:12.545Z,35.59
2022-10-07T12:05:39.390Z,35.59
2022-10-07T12:08:43.384Z,35.22
2022-10-07T12:11:13.267Z,36.29
2022-10-07T12:13:54.809Z,36.56
2022-10-07T12:16:30.484Z,36.60
2022-10-07T12:19:10.832Z,37.23
2022-10-07T12:21:59.565Z,38.54
2022-10-07T12:24:32.660Z,37.77
2022-10-07T12:27:17.700Z,38.54
2022-10-07T12:30:02.464Z,38.82
2022-10-07T12:32:51.174Z,39.28
2022-10-07T12:35:30.135Z,39.47
2022-10-07T12:38:10.989Z,38.91
2022-10-07T12:40:38.549Z,39.32
2022-10-07T12:43:32.247Z,39.22
2022-10-07T12:46:01.027Z,39.55
2022-10-07T12:48:46.231Z,40.35
2022-10-07T12:51:24.461Z,40.96
2022-10-07T12:53:53.064Z,40.48
2022-10-07T12:56:28.930Z,41.05
2022-10-07T12:59:45.233Z,40.68
2022-10-07T13:02:53.596Z,41.55
2022-10-07T13:05:29.223Z,41.96
2022-10-07T13:08:36.619Z,42.95
2022-10-07T13:11:48.051Z,43.10
2022-10-07T13:14:43.800Z,43.46
2022-10-07T13:17:45.280Z,43.80
2022-10-07T13:20:41.961Z,44.57
2022-10-07T13:23:21.984Z,44.13
2022-10-07T13:25:53.920Z,44.21
2022-10-07T13:28:24.950Z,44.65
2022-10-07T13:30:53.550Z,43.82
2022-10-07T13:33:31.600Z,44.73
2022-10-07T13:36:27.694Z,45.22
2022-10-07T13:39:19.588Z,44.41
2022-10-07T13:41:50.240Z,44.65
2022-10-07T13:44:22.723Z,43.79
2022-10-07T13:46:57.325Z,42.85
2022-10-07T13:49:38.072Z,43.63
2022-10-07T13:52:17.338Z,43.50
2022-10-07T13:54:52.178Z,43.38
2022-10-07T13:57:21.471Z,44.13
2022-10-07T13:59:51.616Z,44.00
2022-10-07T14:02:20.554Z,44.33
2022-10-07T14:05:05.936Z,45.44
2022-10-07T14:07:32.916Z,44.87
2022-10-07T14:09:59.788Z,45.49
2022-10-07T14:12:41.985Z,45.91
2022-10-07T14:15:22.979Z,46.16
2022-10-07T14:18:06.502Z,46.27
2022-10-07T14:20:55.895Z,46.24
2022-10-07T14:23:31.397Z,46.24
2022-10-07T14:26:09.840Z,47.00
2022-10-07T14:28:39.326Z,47.77
2022-10-07T14:31:27.909Z,48.45
2022-10-07T14:34:33.486Z,48.71
2022-10-07T14:37:09.780Z,49.15
2022-10-07T14:39:45.278Z,48.89
2022-10-07T14:42:29.507Z,49.24
2022-10-07T14:44:57.646Z,49.23
2022-10-07T14:47:28.153Z,50.53
2022-10-07T14:49:59.173Z,50.68
2022-10-07T14:52:46.172Z,50.59
2022-10-07T14:55:26.616Z,50.16
2022-10-07T14:57:54.126Z,50.72
2022-10-07T15:00:27.750Z,50.78
2022-10-07T15:02:54.801Z,51.00
2022-10-07T15:05:23.081Z,50.80
2022-10-07T15:07:50.807Z,50.76
2022-10-07T15:10:25.292Z,51.26
2022-10-07T15:12:53.294Z,51.86
2022-10-07T15:15:20.287Z,51.42
2022-10-07T15:17:48.101Z,52.55
2022-10-07T15:20:16.781Z,52.89
2022-10-07T15:22:45.865Z,52.47
2022-10-07T15:25:15.369Z,52.99
2022-10-07T15:27:42.891Z,54.04
2022-10-07T15:30:11.324Z,55.05
2022-10-07T15:32:38.388Z,55.52
2022-10-07T15:35:05.973Z,55.86
2022-10-07T15:37:33.654Z,56.18
2022-10-07T15:40:00.986Z,56.42
2022-10-07T15:42:28.023Z,56.40
2022-10-07T15:44:55.001Z,56.98
2022-10-07T15:47:22.190Z,57.19
2022-10-07T15:49:49.735Z,58.03
2022-10-07T15:52:16.911Z,58.30
2022-10-07T15:54:45.506Z,58.79
2022-10-07T15:57:14.295Z,58.31
2022-10-07T15:59:42.334Z,58.99
2022-10-07T16:02:16.760Z,59.13
2022-10-07T16:04:47.406Z,59.86
2022-10-07T16:07:15.595Z,59.45
2022-10-07T16:09:42.619Z,60.16
2022-10-07T16:12:09.639Z,60.41
2022-10-07T16:14:36.634Z,61.01
2022-10-07T16:17:04.306Z,61.50
2022-10-07T16:19:31.292Z,61.40
2022-10-07T16:21:58.203Z,61.79
2022-10-07T16:24:25.488Z,62.38
2022-10-07T16:26:53.102Z,62.67
2022-10-07T16:29:41.335Z,62.99
2022-10-07T16:32:10.965Z,63.33
2022-10-07T16:34:43.169Z,63.48
2022-10-07T16:37:11.209Z,63.70
2022-10-07T16:39:38.360Z,63.76
2022-10-07T16:42:05.830Z,63.93
2022-10-07T16:44:32.835Z,64.05
2022-10-07T16:47:00.292Z,64.42
2022-10-07T16:49:30.243Z,65.20
2022-10-07T16:51:58.430Z,65.06
2022-10-07T16:54:28.490Z,65.84
2022-10-07T16:56:57.658Z,65.90
2022-10-07T16:59:25.656Z,66.08
2022-10-07T17:01:56.086Z,65.42
2022-10-07T17:04:24.966Z,65.21
2022-10-07T17:06:53.132Z,65.39
2022-10-07T17:09:21.893Z,65.39
2022-10-07T17:11:49.053Z,65.47
2022-10-07T17:14:20.154Z,65.54
2022-10-07T17:16:55.450Z,65.26
2022-10-07T17:19:28.933Z,65.20
2022-10-07T17:21:59.360Z,65.30
2022-10-07T17:24:26.716Z,64.90
2022-10-07T17:26:53.839Z,65.17
2022-10-07T17:29:24.288Z,64.60
2022-10-07T17:31:51.672Z,65.06
2022-10-07T17:34:20.805Z,65.08
2022-10-07T17:36:49.319Z,64.85
2022-10-07T17:39:18.989Z,64.55
2022-10-07T17:41:45.999Z,64.48
2022-10-07T17:44:13.301Z,64.67
2022-10-07T17:46:41.295Z,64.76
2022-10-07T17:49:13.538Z,65.37
2022-10-07T17:51:43.051Z,65.15
2022-10-07T17:54:13.517Z,65.88
2022-10-07T17:56:40.630Z,66.12
2022-10-07T17:59:07.781Z,65.32
2022-10-07T18:01:35.581Z,66.85
2022-10-07T18:04:09.699Z,66.67
2022-10-07T18:06:39.240Z,66.95
2022-10-07T18:09:09.281Z,66.95
2022-10-07T18:11:55.233Z,66.72
2022-10-07T18:14:42.011Z,66.87
2022-10-07T18:17:10.648Z,67.78
2022-10-07T18:19:39.763Z,68.13
2022-10-07T18:22:06.984Z,67.24
2022-10-07T18:24:34.544Z,67.33
2022-10-07T18:27:02.543Z,68.29
2022-10-07T18:29:33.634Z,67.56
2022-10-07T18:32:01.099Z,67.63
2022-10-07T18:34:28.547Z,68.47
2022-10-07T18:36:57.200Z,68.62
2022-10-07T18:39:27.683Z,68.66
2022-10-07T18:41:55.202Z,69.15
2022-10-07T18:44:22.336Z,69.20
2022-10-07T18:46:49.577Z,69.42
2022-10-07T18:49:16.579Z,69.36
2022-10-07T18:51:45.691Z,69.61
2022-10-07T18:54:13.047Z,69.83
2022-10-07T18:56:41.311Z,69.57
2022-10-07T18:59:10.052Z,69.70
2022-10-07T19:01:37.846Z,70.32
2022-10-07T19:04:06.248Z,69.50
2022-10-07T19:06:37.732Z,70.11
2022-10-07T19:09:09.593Z,70.39
2022-10-07T19:11:36.626Z,70.32
2022-10-07T19:14:03.693Z,71.55
2022-10-07T19:16:38.184Z,71.35
2022-10-07T19:19:20.789Z,71.43
2022-10-07T19:21:51.712Z,71.83
2022-10-07T19:24:20.088Z,71.71
2022-10-07T19:26:49.972Z,72.06
2022-10-07T19:29:18.105Z,71.98
2022-10-07T19:31:49.876Z,72.34
2022-10-07T19:34:21.222Z,72.57
2022-10-07T19:36:49.975Z,72.56
2022-10-07T19:39:22.299Z,72.89
2022-10-07T19:41:51.095Z,73.19
2022-10-07T19:44:18.788Z,73.53
2022-10-07T19:46:45.709Z,73.64
2022-10-07T19:49:12.740Z,73.80
2022-10-07T19:51:41.917Z,73.83
2022-10-07T19:54:10.747Z,73.72
2022-10-07T19:56:40.141Z,74.41
2022-10-07T19:59:12.898Z,73.70
2022-10-07T20:01:43.332Z,74.01
2022-10-07T20:04:14.291Z,74.60
2022-10-07T20:06:41.747Z,74.50
2022-10-07T20:09:15.108Z,74.49
2022-10-07T20:11:43.130Z,74.60
2022-10-07T20:14:10.342Z,75.09
2022-10-07T20:16:39.170Z,74.58
2022-10-07T20:19:14.329Z,74.72
2022-10-07T20:21:41.387Z,74.93
2022-10-07T20:24:08.984Z,75.67
2022-10-07T20:26:38.838Z,75.89
2022-10-07T20:29:10.055Z,76.10
2022-10-07T20:31:40.340Z,75.98
2022-10-07T20:34:11.958Z,75.60
2022-10-07T20:36:40.811Z,75.82
2022-10-07T20:39:38.351Z,76.94
2022-10-07T20:42:21.292Z,75.82
2022-10-07T20:44:49.895Z,77.45
2022-10-07T20:47:18.039Z,77.99
2022-10-07T20:49:45.214Z,77.27
2022-10-07T20:52:16.845Z,77.46
2022-10-07T20:54:45.754Z,78.23
2022-10-07T20:57:16.294Z,78.32
2022-10-07T20:59:43.819Z,78.53
2022-10-07T21:02:13.574Z,78.82
2022-10-07T21:04:40.701Z,78.90
2022-10-07T21:07:10.995Z,78.21
2022-10-07T21:09:38.018Z,78.79
2022-10-07T21:12:09.182Z,79.03
2022-10-07T21:14:36.966Z,78.91
2022-10-07T21:17:05.944Z,79.25
2022-10-07T21:19:35.775Z,79.89
2022-10-07T21:22:05.221Z,79.48
2022-10-07T21:24:35.543Z,79.24
2022-10-07T21:27:04.784Z,79.29
2022-10-07T21:29:37.414Z,79.36
2022-10-07T21:32:06.475Z,79.55
2022-10-07T21:34:33.469Z,79.50
2022-10-07T21:37:00.802Z,79.65
2022-10-07T21:39:27.916Z,79.66
2022-10-07T21:41:55.182Z,79.76
2022-10-07T21:44:22.116Z,80.83
2022-10-07T21:46:49.277Z,79.62
2022-10-07T21:49:17.512Z,79.94
2022-10-07T21:51:44.780Z,80.19
2022-10-07T21:54:14.289Z,80.89
2022-10-07T21:56:43.573Z,80.24
2022-10-07T21:59:10.899Z,81.32
2022-10-07T22:01:38.864Z,81.66
2022-10-07T22:04:07.252Z,81.14
2022-10-07T22:06:52.903Z,81.88
2022-10-07T22:09:21.444Z,81.66
2022-10-07T22:11:50.330Z,82.11
2022-10-07T22:14:19.116Z,81.67
2022-10-07T22:16:48.459Z,82.28
2022-10-07T22:19:17.449Z,82.47
2022-10-07T22:21:45.837Z,82.83
2022-10-07T22:24:13.090Z,82.30
2022-10-07T22:26:46.357Z,82.29
2022-10-07T22:29:16.243Z,82.61
2022-10-07T22:31:43.552Z,82.23
2022-10-07T22:34:30.562Z,82.65
2022-10-07T22:36:58.305Z,82.53
2022-10-07T22:39:26.463Z,82.85
2022-10-07T22:41:53.681Z,82.78
2022-10-07T22:44:20.910Z,82.77
2022-10-07T22:46:47.913Z,83.13
2022-10-07T22:49:15.255Z,83.37
2022-10-07T22:51:43.095Z,83.57
2022-10-07T22:54:12.859Z,82.39
2022-10-07T22:56:40.241Z,83.61
2022-10-07T22:59:08.673Z,83.47
2022-10-07T23:01:35.940Z,84.09
2022-10-07T23:04:04.442Z,83.60
2022-10-07T23:06:34.773Z,84.03
2022-10-07T23:09:03.260Z,84.15
2022-10-07T23:11:30.940Z,84.48
2022-10-07T23:13:58.218Z,84.64
2022-10-07T23:16:29.707Z,84.74
2022-10-07T23:18:58.665Z,84.60
2022-10-07T23:21:29.904Z,84.88
2022-10-07T23:24:06.858Z,84.53
2022-10-07T23:26:34.961Z,84.62
2022-10-07T23:29:02.801Z,83.69
2022-10-07T23:31:32.053Z,85.20
2022-10-07T23:34:01.172Z,85.23
2022-10-07T23:36:28.456Z,84.75
2022-10-07T23:38:55.827Z,85.33
2022-10-07T23:41:26.368Z,85.40
2022-10-07T23:43:57.078Z,85.58
2022-10-07T23:46:27.073Z,85.44
2022-10-07T23:48:55.962Z,85.35
2022-10-07T23:51:26.164Z,85.41
2022-10-07T23:53:53.588Z,85.95
2022-10-07T23:56:20.544Z,85.92
2022-10-07T23:58:47.536Z,85.78
